Time;durP1;ratioP1;P1;durP2;ratioP2;P2;SDS_P1;SDS_P2;PMS_P1;PMS_P2;Temp;Humidity;BMP_temperature;BMP_pressure;BME280_temperature;BME280_humidity;BME280_pressure;Samples;Min_cycle;Max_cycle;Signal;HPM_P1;HPM_P2
2022/06/25 00:01:45;;;;;;;6.85;3.10;;;;;;;22.09;55.01;100826.22;5035421;28;20042;-54
2022/06/25 00:06:55;;;;;;;5.65;3.58;;;;;;;21.94;55.53;100827.88;5034656;28;20512;-56
2022/06/25 00:09:23;;;;;;;7.28;5.00;;;;;;;21.87;55.85;100829.16;5034630;28;20061;-52
2022/06/25 00:14:43;;;;;;;7.93;4.50;;;;;;;21.74;56.12;100828.06;5011892;28;20453;-53
2022/06/25 00:17:18;;;;;;;5.10;3.42;;;;;;;21.71;56.32;100825.59;5014553;28;20872;-53
2022/06/25 00:19:45;;;;;;;5.80;3.60;;;;;;;21.69;56.36;100824.81;5034815;28;20053;-53
2022/06/25 00:22:13;;;;;;;8.23;4.10;;;;;;;21.67;56.50;100829.31;5035403;28;20053;-56
2022/06/25 00:27:23;;;;;;;8.60;4.78;;;;;;;21.59;56.61;100826.25;5034908;28;20143;-57
2022/06/25 00:29:53;;;;;;;8.65;4.40;;;;;;;21.53;56.75;100832.69;5034196;28;20060;-56
2022/06/25 00:32:35;;;;;;;6.82;4.05;;;;;;;21.48;56.82;100836.50;5034313;28;20572;-52
2022/06/25 00:35:05;;;;;;;6.75;4.10;;;;;;;21.41;57.01;100836.84;5034638;28;20528;-52
2022/06/25 00:37:33;;;;;;;8.07;4.47;;;;;;;21.36;57.00;100836.22;5034811;28;20064;-55
2022/06/25 00:40:01;;;;;;;6.95;4.70;;;;;;;21.33;57.13;100835.50;5034607;28;20049;-55
2022/06/25 00:42:29;;;;;;;6.25;4.10;;;;;;;21.29;57.27;100840.06;5034604;28;20057;-53
2022/06/25 00:45:00;;;;;;;9.27;5.03;;;;;;;21.26;57.54;100831.47;5034600;28;20053;-56
2022/06/25 00:47:35;;;;;;;8.65;4.72;;;;;;;21.20;57.74;100835.22;5033333;28;20069;-56
2022/06/25 00:50:08;;;;;;;8.88;4.45;;;;;;;21.15;57.82;100831.97;5034418;28;20042;-54
2022/06/25 00:52:42;;;;;;;7.00;4.32;;;;;;;21.12;57.63;100837.41;5034691;28;20053;-54
2022/06/25 00:55:12;;;;;;;8.27;4.57;;;;;;;21.06;57.90;100837.72;5034362;28;20088;-56
2022/06/25 00:57:41;;;;;;;8.05;4.13;;;;;;;21.03;57.95;100840.50;5034211;28;20083;-54
2022/06/25 01:00:14;;;;;;;7.45;4.40;;;;;;;20.98;57.93;100839.88;5034336;28;20060;-55
2022/06/25 01:02:57;;;;;;;9.52;4.38;;;;;;;20.94;58.13;100838.34;5033946;28;20081;-55
2022/06/25 01:05:24;;;;;;;6.85;4.25;;;;;;;20.89;58.35;100835.06;5034313;28;20049;-54
2022/06/25 01:07:55;;;;;;;9.35;5.22;;;;;;;20.86;58.59;100835.22;5033624;28;20053;-53
2022/06/25 01:10:24;;;;;;;5.88;4.30;;;;;;;20.82;58.47;100838.94;5033804;28;20417;-55
2022/06/25 01:12:52;;;;;;;7.78;4.00;;;;;;;20.80;58.53;100846.91;5034095;28;20053;-54
2022/06/25 01:15:23;;;;;;;6.53;4.10;;;;;;;20.77;58.43;100847.91;5034110;28;20061;-53
2022/06/25 01:17:53;;;;;;;5.78;4.00;;;;;;;20.75;58.58;100844.47;5033824;28;20366;-53
2022/06/25 01:20:24;;;;;;;5.78;4.43;;;;;;;20.71;58.84;100847.34;5034086;28;20049;-56
2022/06/25 01:23:00;;;;;;;8.43;4.90;;;;;;;20.67;58.59;100851.91;5033940;28;20068;-55
2022/06/25 01:25:38;;;;;;;6.03;3.90;;;;;;;20.64;58.79;100852.06;5034018;28;20063;-52
2022/06/25 01:28:08;;;;;;;8.10;4.55;;;;;;;20.61;58.66;100846.94;5033701;28;20057;-55
2022/06/25 01:30:38;;;;;;;5.88;4.30;;;;;;;20.60;58.69;100850.50;5033590;28;20356;-56
2022/06/25 01:33:14;;;;;;;6.40;4.55;;;;;;;20.56;58.86;100848.94;5033702;28;20136;-55
2022/06/25 01:35:46;;;;;;;8.30;4.60;;;;;;;20.54;59.05;100856.06;5033390;28;20053;-56
2022/06/25 01:38:28;;;;;;;7.07;4.20;;;;;;;20.50;59.12;100854.50;5033810;28;20060;-52
2022/06/25 01:40:57;;;;;;;6.32;4.10;;;;;;;20.47;59.15;100859.91;5033552;28;20456;-53
2022/06/25 01:43:27;;;;;;;7.05;3.90;;;;;;;20.45;59.26;100853.88;5033279;28;20050;-55
2022/06/25 01:45:54;;;;;;;6.55;4.05;;;;;;;20.41;59.13;100849.69;5033353;28;20081;-52
2022/06/25 01:48:24;;;;;;;5.25;3.88;;;;;;;20.38;59.23;100852.44;5032855;28;20140;-56
2022/06/25 01:50:54;;;;;;;5.15;3.65;;;;;;;20.32;59.39;100848.31;5033195;28;20052;-53
2022/06/25 01:53:31;;;;;;;11.95;4.22;;;;;;;20.30;59.38;100854.56;5011439;28;20092;-54
2022/06/25 01:56:02;;;;;;;8.38;4.13;;;;;;;20.27;59.47;100857.31;5013226;28;20054;-56
2022/06/25 01:58:33;;;;;;;5.97;3.55;;;;;;;20.23;59.64;100866.28;5012605;28;20116;-54
2022/06/25 02:01:02;;;;;;;7.45;4.65;;;;;;;20.21;59.62;100862.84;5012862;28;20081;-52
2022/06/25 02:03:32;;;;;;;7.75;4.22;;;;;;;20.22;59.70;100859.31;5032355;28;20148;-53
2022/06/25 02:06:02;;;;;;;11.65;4.65;;;;;;;20.18;59.89;100859.44;5033618;28;20049;-55
2022/06/25 02:08:35;;;;;;;14.13;4.80;;;;;;;20.15;59.78;100856.97;5033339;28;20057;-53
2022/06/25 02:11:08;;;;;;;9.07;4.22;;;;;;;20.13;59.93;100864.06;5033241;28;20084;-54
2022/06/25 02:13:35;;;;;;;6.88;4.13;;;;;;;20.10;59.89;100861.56;5033265;28;20049;-55
2022/06/25 02:16:13;;;;;;;10.52;4.82;;;;;;;20.09;59.79;100870.41;5033429;28;20103;-55
2022/06/25 02:18:43;;;;;;;6.03;5.10;;;;;;;20.07;59.85;100871.38;5033401;28;20057;-53
2022/06/25 02:21:09;;;;;;;9.10;5.10;;;;;;;20.03;59.79;100870.69;5033468;28;20054;-52
2022/06/25 02:23:53;;;;;;;6.10;4.40;;;;;;;20.01;59.65;100863.78;5032977;28;20053;-53
2022/06/25 02:26:20;;;;;;;14.10;4.88;;;;;;;19.95;59.97;100867.53;5033507;28;20119;-56
2022/06/25 02:28:49;;;;;;;13.55;5.38;;;;;;;19.91;59.96;100862.50;5030839;28;20128;-53
2022/06/25 02:31:15;;;;;;;7.05;4.22;;;;;;;19.90;60.17;100872.16;5033162;28;20217;-53
2022/06/25 02:33:45;;;;;;;8.13;5.20;;;;;;;19.87;60.56;100869.66;5032498;28;20060;-52
2022/06/25 02:36:14;;;;;;;6.88;4.53;;;;;;;19.90;60.48;100872.16;5033045;28;20537;-54
2022/06/25 02:38:57;;;;;;;8.07;4.15;;;;;;;19.89;60.53;100866.97;5032887;28;20465;-52
2022/06/25 02:41:28;;;;;;;6.65;4.05;;;;;;;19.85;60.86;100867.09;5033365;28;20053;-52
2022/06/25 02:43:54;;;;;;;6.25;4.03;;;;;;;19.81;60.82;100864.69;5013123;28;20359;-55
2022/06/25 02:46:29;;;;;;;6.00;4.03;;;;;;;19.80;60.89;100868.22;5028523;28;20057;-55
2022/06/25 02:48:59;;;;;;;6.50;4.67;;;;;;;19.77;60.91;100863.06;5032009;28;20050;-53
2022/06/25 02:51:29;;;;;;;7.35;4.70;;;;;;;19.78;61.20;100859.56;5033092;28;20076;-52
2022/06/25 02:54:05;;;;;;;5.75;4.10;;;;;;;19.77;61.27;100857.81;5032964;28;20049;-56
2022/06/25 02:59:17;;;;;;;6.88;3.67;;;;;;;19.76;61.54;100862.22;5032620;28;19931;-55
2022/06/25 03:01:44;;;;;;;5.47;3.50;;;;;;;19.83;61.58;100868.09;5032351;28;20450;-56
2022/06/25 03:04:14;;;;;;;6.75;4.18;;;;;;;19.91;61.42;100865.97;5032461;28;20053;-55
2022/06/25 03:09:28;;;;;;;7.72;4.50;;;;;;;20.02;61.14;100874.22;5032121;28;20469;-55
2022/06/25 03:11:58;;;;;;;5.78;4.18;;;;;;;20.07;60.93;100872.25;5036770;28;20145;-56
2022/06/25 03:14:26;;;;;;;6.63;4.80;;;;;;;20.12;60.84;100872.88;5016488;28;20689;-52
2022/06/25 03:17:03;;;;;;;8.70;4.38;;;;;;;20.20;60.85;100877.78;5016910;28;20050;-55
2022/06/25 03:19:31;;;;;;;6.60;4.45;;;;;;;20.29;60.70;100873.88;5021442;28;20061;-52
2022/06/25 03:22:00;;;;;;;6.53;4.43;;;;;;;20.37;60.73;100877.03;5036214;28;20370;-52
2022/06/25 03:24:36;;;;;;;4.88;4.35;;;;;;;20.47;60.47;100878.34;5036343;28;20061;-55
2022/06/25 03:27:12;;;;;;;6.47;4.93;;;;;;;20.59;60.18;100869.88;5036590;28;20081;-55
2022/06/25 03:29:42;;;;;;;16.92;4.90;;;;;;;20.69;60.19;100871.13;5036441;28;20049;-55
2022/06/25 03:32:10;;;;;;;8.75;4.93;;;;;;;20.81;59.85;100869.72;5036273;28;20060;-56
2022/06/25 03:34:41;;;;;;;6.85;4.55;;;;;;;20.92;59.68;100871.81;5036293;28;20089;-55
2022/06/25 03:37:09;;;;;;;5.88;4.45;;;;;;;21.01;59.55;100871.34;5036490;28;20089;-56
2022/06/25 03:39:49;;;;;;;9.02;5.05;;;;;;;21.12;59.54;100871.69;5036080;28;20050;-55
2022/06/25 03:42:25;;;;;;;6.05;4.70;;;;;;;21.22;59.26;100877.34;5036106;28;20046;-54
2022/06/25 03:44:55;;;;;;;7.82;4.93;;;;;;;21.35;58.86;100881.97;5036199;28;20056;-56
2022/06/25 03:47:24;;;;;;;7.43;4.55;;;;;;;21.50;58.39;100879.47;5035764;28;20049;-55
2022/06/25 03:49:53;;;;;;;7.20;4.32;;;;;;;21.66;57.94;100875.09;5035356;28;20054;-53
2022/06/25 03:52:25;;;;;;;6.25;4.43;;;;;;;21.84;57.76;100874.13;5035819;28;20049;-53
2022/06/25 03:55:02;;;;;;;6.35;3.70;;;;;;;22.02;56.73;100875.81;5036049;28;20057;-54
2022/06/25 03:57:30;;;;;;;6.90;3.72;;;;;;;22.22;56.30;100887.13;5036004;28;20061;-56
2022/06/25 04:00:00;;;;;;;6.25;3.90;;;;;;;22.41;55.38;100885.19;5035822;28;20437;-55
2022/06/25 04:02:27;;;;;;;4.78;3.85;;;;;;;22.61;54.93;100879.66;5035758;28;20049;-56
2022/06/25 04:04:57;;;;;;;6.93;3.97;;;;;;;22.83;54.58;100873.19;5035890;28;20073;-56
2022/06/25 04:07:29;;;;;;;5.43;3.28;;;;;;;23.03;53.80;100875.56;5035641;28;20475;-53
2022/06/25 04:10:06;;;;;;;5.13;3.35;;;;;;;23.26;52.91;100879.50;5035769;28;20060;-56
2022/06/25 04:12:34;;;;;;;6.72;3.50;;;;;;;23.50;52.45;100887.78;5035729;28;20049;-52
2022/06/25 04:15:03;;;;;;;4.90;3.60;;;;;;;23.73;51.82;100889.06;5035138;28;20642;-53
2022/06/25 04:17:34;;;;;;;6.55;3.80;;;;;;;23.97;51.09;100892.03;5034934;28;20136;-54
2022/06/25 04:20:03;;;;;;;6.60;4.07;;;;;;;24.19;50.48;100897.69;5035131;28;20057;-53
2022/06/25 04:22:33;;;;;;;5.55;3.90;;;;;;;24.36;50.30;100894.88;5035352;28;20045;-54
2022/06/25 04:25:09;;;;;;;5.63;3.83;;;;;;;24.57;49.54;100903.28;5035408;28;20060;-55
2022/06/25 04:30:23;;;;;;;;;;;;;;;24.90;48.45;100897.59;5035364;28;20508;-55
2022/06/25 04:32:53;;;;;;;4.70;3.25;;;;;;;25.08;48.43;100896.44;5034317;28;19995;-55
2022/06/25 04:35:23;;;;;;;8.82;3.72;;;;;;;25.30;48.18;100906.44;5034694;28;20458;-56
2022/06/25 04:40:34;;;;;;;6.25;3.58;;;;;;;25.66;47.11;100911.13;5035008;28;20083;-55
2022/06/25 04:43:04;;;;;;;3.95;3.25;;;;;;;25.78;46.93;100915.56;5034736;28;20064;-55
2022/06/25 04:45:34;;;;;;;4.65;3.53;;;;;;;25.94;46.24;100917.16;5034480;28;20063;-53
2022/06/25 04:48:01;;;;;;;6.78;3.92;;;;;;;26.09;45.79;100908.16;5034198;28;21125;-53
2022/06/25 04:50:29;;;;;;;5.45;3.58;;;;;;;26.21;45.50;100901.97;5034543;28;20075;-54
2022/06/25 04:52:58;;;;;;;5.45;3.72;;;;;;;26.38;45.24;100908.75;5034509;28;20041;-56
2022/06/25 04:55:26;;;;;;;4.40;3.35;;;;;;;26.55;45.21;100915.53;5034588;28;20049;-53
2022/06/25 04:58:00;;;;;;;5.57;4.00;;;;;;;26.69;44.56;100918.06;5034974;28;20072;-55
2022/06/25 05:00:30;;;;;;;6.30;3.40;;;;;;;26.82;44.31;100926.81;5035017;28;20077;-53
2022/06/25 05:02:59;;;;;;;4.85;3.35;;;;;;;26.96;44.42;100926.66;5034632;28;20299;-55
2022/06/25 05:05:26;;;;;;;6.68;3.78;;;;;;;27.07;43.75;100927.72;5033541;28;20081;-55
2022/06/25 05:07:55;;;;;;;4.80;3.20;;;;;;;27.22;43.55;100923.91;5034107;28;20060;-56
2022/06/25 05:10:24;;;;;;;4.50;3.40;;;;;;;27.37;43.37;100930.75;5034439;28;20076;-56
2022/06/25 05:15:39;;;;;;;7.43;3.50;;;;;;;27.74;42.30;100927.97;5032083;28;20092;-54
2022/06/25 05:18:09;;;;;;;13.88;3.35;;;;;;;27.88;42.06;100930.41;5034073;28;20053;-54
2022/06/25 05:20:41;;;;;;;5.57;3.40;;;;;;;28.00;41.74;100934.78;5032453;28;20465;-54
2022/06/25 05:23:19;;;;;;;4.65;3.30;;;;;;;28.16;41.57;100932.66;5033665;28;20045;-56
2022/06/25 05:25:49;;;;;;;5.07;3.63;;;;;;;28.38;41.16;100928.28;5034340;28;20053;-56
2022/06/25 05:28:30;;;;;;;20.90;4.35;;;;;;;28.58;40.71;100933.72;5033726;28;20367;-55
2022/06/25 05:30:59;;;;;;;6.13;3.67;;;;;;;28.73;40.24;100939.66;5033568;28;20485;-52
2022/06/25 05:33:30;;;;;;;4.53;3.50;;;;;;;28.82;40.01;100938.91;5032886;28;20073;-53
2022/06/25 05:35:59;;;;;;;4.00;3.60;;;;;;;28.97;39.52;100941.31;5033988;28;20057;-55
2022/06/25 05:38:25;;;;;;;4.38;3.50;;;;;;;29.02;39.37;100937.28;5033484;28;20084;-56
2022/06/25 05:40:54;;;;;;;3.85;3.20;;;;;;;29.08;39.25;100935.94;5033717;28;20057;-55
2022/06/25 05:43:41;;;;;;;5.20;3.75;;;;;;;29.19;38.56;100941.25;5033222;28;20045;-54
2022/06/25 05:46:11;;;;;;;65.18;7.63;;;;;;;29.31;38.88;100940.22;5033756;28;20053;-53
2022/06/25 05:51:19;;;;;;;5.55;3.45;;;;;;;29.53;38.39;100940.13;5018717;28;20526;-55
2022/06/25 05:53:49;;;;;;;13.98;3.78;;;;;;;29.62;38.35;100935.84;5033024;28;20405;-55
2022/06/25 05:56:17;;;;;;;15.60;4.03;;;;;;;29.72;38.03;100939.44;5033748;28;20049;-54
2022/06/25 05:58:55;;;;;;;10.38;3.85;;;;;;;29.86;37.80;100935.59;5033246;28;20064;-52
2022/06/25 06:01:23;;;;;;;5.65;3.40;;;;;;;30.02;37.43;100946.66;5033421;28;20119;-53
2022/06/25 06:03:53;;;;;;;6.32;3.58;;;;;;;30.11;37.20;100945.88;5033214;28;20144;-54
2022/06/25 06:06:23;;;;;;;3.53;3.13;;;;;;;30.21;37.15;100940.59;5032994;28;20059;-54
2022/06/25 06:08:53;;;;;;;4.55;3.65;;;;;;;30.36;37.16;100941.06;5032797;28;20049;-52
2022/06/25 06:11:19;;;;;;;5.30;3.30;;;;;;;30.45;36.47;100938.41;5033658;28;20053;-56
2022/06/25 06:14:00;;;;;;;5.03;3.85;;;;;;;30.48;36.08;100937.28;5032932;28;20053;-56
2022/06/25 06:16:27;;;;;;;4.28;3.30;;;;;;;30.53;36.68;100934.22;5032330;28;20080;-56
2022/06/25 06:18:58;;;;;;;9.85;3.58;;;;;;;30.60;36.21;100940.72;5032754;28;20049;-56
2022/06/25 06:21:29;;;;;;;6.30;3.33;;;;;;;30.69;36.52;100946.09;5033068;28;20453;-56
2022/06/25 06:23:59;;;;;;;4.57;3.60;;;;;;;30.81;36.18;100951.38;5032915;28;20049;-56
2022/06/25 06:26:25;;;;;;;5.60;3.20;;;;;;;30.87;36.18;100958.84;5033253;28;20054;-56
2022/06/25 06:28:56;;;;;;;3.63;3.30;;;;;;;30.94;35.90;100957.28;5012887;28;20157;-55
2022/06/25 06:31:24;;;;;;;4.57;3.03;;;;;;;31.03;36.09;100964.50;5013198;28;20160;-57
2022/06/25 06:33:54;;;;;;;7.15;3.60;;;;;;;31.16;35.15;100953.53;5015696;28;20081;-53
2022/06/25 06:36:22;;;;;;;5.28;3.28;;;;;;;31.22;35.06;100956.53;5032886;28;20049;-54
2022/06/25 06:38:52;;;;;;;6.43;3.17;;;;;;;31.31;34.64;100953.00;5033034;28;20050;-56
2022/06/25 06:41:22;;;;;;;5.13;3.67;;;;;;;31.37;34.67;100955.09;5032709;28;20092;-57
2022/06/25 06:43:50;;;;;;;5.75;3.35;;;;;;;31.43;34.43;100960.88;5015153;28;20054;-56
2022/06/25 06:46:25;;;;;;;3.55;3.17;;;;;;;31.51;34.45;100952.97;5032678;28;20060;-57
2022/06/25 06:48:54;;;;;;;25.98;4.78;;;;;;;31.56;34.05;100958.75;5036162;28;20144;-56
2022/06/25 06:51:22;;;;;;;3.70;3.08;;;;;;;31.72;34.09;100956.34;5036844;28;20049;-56
2022/06/25 06:53:51;;;;;;;4.07;2.97;;;;;;;31.89;33.97;100957.47;5036712;28;20059;-56
2022/06/25 06:56:21;;;;;;;5.22;3.45;;;;;;;32.03;33.88;100958.84;5036343;28;20053;-57
2022/06/25 06:58:49;;;;;;;4.22;3.55;;;;;;;32.10;34.19;100959.94;5035994;28;20049;-57
2022/06/25 07:01:19;;;;;;;4.40;3.13;;;;;;;32.19;33.55;100959.91;5036533;28;20045;-57
2022/06/25 07:04:00;;;;;;;5.30;3.33;;;;;;;32.36;33.09;100961.00;5036517;28;20541;-57
2022/06/25 07:06:30;;;;;;;6.18;3.30;;;;;;;32.47;33.26;100963.50;5035811;28;20052;-57
2022/06/25 07:08:59;;;;;;;6.95;3.25;;;;;;;32.51;33.20;100966.72;5036050;28;20478;-56
2022/06/25 07:11:31;;;;;;;4.85;3.33;;;;;;;32.58;33.36;100967.81;5035995;28;20053;-57
2022/06/25 07:14:04;;;;;;;4.57;2.95;;;;;;;32.71;33.14;100964.78;5036283;28;20056;-56
2022/06/25 07:16:34;;;;;;;4.32;3.33;;;;;;;32.83;32.76;100958.25;5036521;28;20099;-57
2022/06/25 07:19:10;;;;;;;7.88;3.50;;;;;;;32.97;33.14;100960.41;5036158;28;20063;-56
2022/06/25 07:21:48;;;;;;;4.65;3.17;;;;;;;33.10;33.10;100963.56;5036149;28;20544;-57
2022/06/25 07:24:17;;;;;;;4.85;3.42;;;;;;;33.13;33.14;100963.25;5036525;28;20059;-57
2022/06/25 07:26:47;;;;;;;4.90;3.13;;;;;;;33.24;32.56;100972.91;5036297;28;20065;-56
2022/06/25 07:31:57;;;;;;;8.73;3.28;;;;;;;33.43;32.27;100971.97;5035815;28;20704;-56
2022/06/25 07:34:28;;;;;;;5.75;2.92;;;;;;;33.48;32.04;100965.13;5035250;28;20415;-55
2022/06/25 07:36:58;;;;;;;6.43;2.90;;;;;;;33.57;31.74;100960.66;5034266;28;20069;-56
2022/06/25 07:39:36;;;;;;;4.43;3.42;;;;;;;33.62;31.31;100961.03;5033680;28;20052;-54
2022/06/25 07:42:06;;;;;;;6.63;3.00;;;;;;;33.72;31.83;100966.28;5026868;28;20053;-56
2022/06/25 07:47:20;;;;;;;4.78;3.65;;;;;;;33.94;31.31;100973.91;5035331;28;20053;-49
2022/06/25 07:52:37;;;;;;;9.77;3.33;;;;;;;34.28;31.10;100968.53;5034253;28;20069;-52
2022/06/25 07:55:10;;;;;;;8.15;3.22;;;;;;;34.37;31.15;100967.63;5034556;28;20517;-50
2022/06/25 07:57:40;;;;;;;4.10;3.15;;;;;;;34.45;30.93;100967.66;5032035;28;20065;-55
2022/06/25 08:00:12;;;;;;;6.93;2.80;;;;;;;34.54;31.01;100967.69;5034522;28;20145;-52
2022/06/25 08:02:40;;;;;;;14.10;4.50;;;;;;;34.69;31.03;100966.03;5031826;28;20092;-55
2022/06/25 08:05:09;;;;;;;3.50;2.97;;;;;;;34.83;30.75;100961.91;5036020;28;20049;-52
2022/06/25 08:07:38;;;;;;;3.88;2.60;;;;;;;34.89;30.65;100966.66;5035521;28;20046;-54
2022/06/25 08:10:14;;;;;;;4.38;3.00;;;;;;;34.95;30.38;100972.22;5035324;28;20049;-53
2022/06/25 08:12:41;;;;;;;4.90;2.72;;;;;;;35.02;30.67;100967.00;5035104;28;20045;-55
2022/06/25 08:15:13;;;;;;;5.40;3.00;;;;;;;35.08;30.44;100967.19;5034975;28;20054;-56
2022/06/25 08:17:44;;;;;;;6.93;3.03;;;;;;;35.15;30.55;100967.34;5035292;28;20053;-56
2022/06/25 08:20:21;;;;;;;4.93;3.03;;;;;;;35.30;30.32;100965.69;5034667;28;20458;-56
2022/06/25 08:22:49;;;;;;;3.85;2.92;;;;;;;35.37;30.16;100960.50;5033217;28;20055;-54
2022/06/25 08:25:19;;;;;;;3.42;2.90;;;;;;;35.51;29.71;100962.53;5035062;28;20049;-56
2022/06/25 08:27:50;;;;;;;4.35;2.97;;;;;;;35.62;29.69;100958.66;5035068;28;20059;-49
2022/06/25 08:30:19;;;;;;;4.18;3.17;;;;;;;35.74;29.63;100968.91;5035469;28;20087;-53
2022/06/25 08:32:47;;;;;;;3.80;2.80;;;;;;;35.89;28.72;100965.53;5035015;28;20056;-53
2022/06/25 08:35:21;;;;;;;4.82;2.80;;;;;;;35.95;28.01;100970.28;5034869;28;20081;-52
2022/06/25 08:37:50;;;;;;;2.70;2.08;;;;;;;35.95;27.79;100973.81;5035159;28;20053;-53
2022/06/25 08:40:26;;;;;;;3.35;2.35;;;;;;;35.97;28.06;100962.84;5034794;28;20373;-55
2022/06/25 08:42:55;;;;;;;4.32;2.90;;;;;;;36.01;27.53;100970.41;5034765;28;20053;-50
2022/06/25 08:45:23;;;;;;;5.03;3.13;;;;;;;36.09;27.41;100971.41;5035302;28;20123;-53
2022/06/25 08:47:52;;;;;;;3.55;2.70;;;;;;;36.16;27.27;100973.25;5034502;28;20508;-51
2022/06/25 08:50:23;;;;;;;3.20;2.28;;;;;;;36.20;27.21;100973.72;5034757;28;20053;-55
2022/06/25 08:53:00;;;;;;;4.05;2.63;;;;;;;36.27;27.00;100970.16;5034663;28;20128;-50
2022/06/25 08:55:32;;;;;;;9.88;2.55;;;;;;;36.39;26.74;100975.22;5034995;28;20138;-53
2022/06/25 08:58:09;;;;;;;5.00;2.20;;;;;;;36.84;25.68;100961.00;5034165;28;20053;-52
2022/06/25 09:00:42;;;;;;;3.40;2.33;;;;;;;37.43;24.66;100967.53;5034910;28;20111;-55
2022/06/25 09:03:12;;;;;;;6.13;2.60;;;;;;;37.69;24.60;100972.56;5034545;28;20046;-59
2022/06/25 09:05:47;;;;;;;7.15;2.45;;;;;;;37.01;25.07;100956.38;5034464;28;20068;-54
2022/06/25 09:08:16;;;;;;;3.17;2.45;;;;;;;36.65;25.81;100963.13;5032993;28;20413;-55
2022/06/25 09:10:48;;;;;;;4.90;2.10;;;;;;;36.42;26.28;100955.97;5034729;28;20064;-54
2022/06/25 09:15:57;;;;;;;19.60;2.78;;;;;;;36.15;26.13;100955.38;5033688;28;20065;-48
2022/06/25 09:18:26;;;;;;;8.15;2.33;;;;;;;36.03;26.64;100962.16;5033646;28;20482;-51
2022/06/25 09:21:07;;;;;;;3.03;2.55;;;;;;;35.88;27.30;100955.75;5033816;28;20057;-51
2022/06/25 09:24:00;;;;;;;6.43;3.03;;;;;;;35.84;27.22;100951.72;5033395;28;20060;-51
2022/06/25 09:29:51;;;;;;;51.90;5.70;;;;;;;35.35;27.14;100946.34;5020867;28;20060;-55
2022/06/25 09:32:21;;;;;;;6.22;2.17;;;;;;;35.25;26.77;100945.63;5032074;28;20059;-50
2022/06/25 09:34:49;;;;;;;7.28;2.63;;;;;;;35.17;27.19;100948.34;5031940;28;20498;-51
2022/06/25 09:37:33;;;;;;;3.70;2.30;;;;;;;34.96;26.54;100954.22;5033073;28;20473;-52
2022/06/25 09:40:09;;;;;;;3.00;2.20;;;;;;;34.86;26.61;100946.28;5033629;28;20056;-52
2022/06/25 09:42:38;;;;;;;2.17;1.90;;;;;;;34.84;26.45;100948.25;5033135;28;20456;-52
2022/06/25 09:45:11;;;;;;;6.95;2.60;;;;;;;34.77;26.42;100950.75;5030797;28;20060;-54
2022/06/25 09:47:40;;;;;;;4.00;2.40;;;;;;;34.67;26.44;100946.50;5033645;28;20045;-51
2022/06/25 09:50:14;;;;;;;6.65;2.10;;;;;;;34.60;26.77;100934.72;5030267;28;20057;-52
2022/06/25 09:52:59;;;;;;;4.60;2.20;;;;;;;34.58;26.16;100934.88;5032819;28;20367;-52
2022/06/25 09:55:30;;;;;;;3.85;2.30;;;;;;;34.53;26.10;100955.22;5032946;28;20139;-51
2022/06/25 09:58:01;;;;;;;4.85;2.53;;;;;;;34.34;26.27;100951.78;5032926;28;20057;-52
2022/06/25 10:00:31;;;;;;;7.40;1.85;;;;;;;34.29;26.09;100943.31;5033296;28;20053;-52
2022/06/25 10:03:00;;;;;;;3.50;1.80;;;;;;;34.30;26.22;100950.38;5032335;28;20068;-51
2022/06/25 10:05:35;;;;;;;2.30;2.08;;;;;;;34.30;26.18;100950.38;5033544;28;20092;-51
2022/06/25 10:08:23;;;;;;;4.05;2.13;;;;;;;34.29;26.05;100937.09;5033579;28;20059;-51
2022/06/25 10:10:55;;;;;;;14.95;2.30;;;;;;;34.28;26.27;100938.94;5030554;28;20065;-51
2022/06/25 10:13:24;;;;;;;15.23;3.17;;;;;;;34.27;26.79;100939.09;5032268;28;20554;-52
2022/06/25 10:15:54;;;;;;;3.05;2.45;;;;;;;34.23;26.86;100938.56;5030822;28;20072;-54
2022/06/25 10:21:06;;;;;;;3.38;2.33;;;;;;;34.18;28.04;100944.44;5032032;28;20502;-52
2022/06/25 10:23:40;;;;;;;3.50;2.67;;;;;;;34.05;28.25;100937.81;5032806;28;20382;-51
2022/06/25 10:26:09;;;;;;;2.50;2.00;;;;;;;33.95;28.92;100950.53;5013428;28;20156;-52
2022/06/25 10:28:41;;;;;;;5.45;2.25;;;;;;;33.80;28.92;100943.00;5023153;28;20052;-52
2022/06/25 10:31:15;;;;;;;4.53;2.38;;;;;;;33.79;28.46;100946.69;5038396;28;20048;-55
2022/06/25 10:33:56;;;;;;;5.95;2.03;;;;;;;33.81;28.06;100947.38;5012757;28;20104;-54
2022/06/25 10:36:43;;;;;;;2.50;2.00;;;;;;;33.88;27.77;100944.97;5011057;28;20081;-52
2022/06/25 10:39:40;;;;;;;19.92;2.92;;;;;;;33.95;26.89;100937.94;5011902;28;20399;-55
2022/06/25 10:45:50;;;;;;;4.00;2.40;;;;;;;33.97;27.34;100940.47;5032621;28;20504;-55
2022/06/25 10:48:22;;;;;;;3.67;1.83;;;;;;;33.86;27.99;100946.97;5000528;28;20104;-54
2022/06/25 10:50:53;;;;;;;5.95;2.90;;;;;;;33.77;28.07;100948.69;5031583;28;20045;-55
2022/06/25 10:53:38;;;;;;;3.35;2.33;;;;;;;33.65;28.44;100941.91;5032282;28;20083;-51
2022/06/25 10:56:28;;;;;;;4.05;3.00;;;;;;;33.33;29.53;100944.34;5031860;28;20072;-54
2022/06/25 10:58:56;;;;;;;5.40;2.97;;;;;;;33.15;30.03;100934.41;5032380;28;20215;-52
2022/06/25 11:01:34;;;;;;;7.93;3.13;;;;;;;33.10;29.91;100944.75;5032329;28;20574;-53
2022/06/25 11:04:10;;;;;;;3.72;2.55;;;;;;;33.06;29.90;100942.53;5032232;28;20463;-51
2022/06/25 11:06:40;;;;;;;4.90;2.65;;;;;;;32.99;30.07;100953.03;5032881;28;20053;-51
2022/06/25 11:09:16;;;;;;;3.65;2.30;;;;;;;32.84;30.19;100927.72;5032934;28;20056;-50
2022/06/25 11:11:58;;;;;;;5.93;2.88;;;;;;;32.81;29.96;100934.25;5032841;28;20177;-50
2022/06/25 11:14:28;;;;;;;3.03;2.72;;;;;;;32.75;30.69;100939.31;5032282;28;20045;-51
2022/06/25 11:16:56;;;;;;;3.30;2.60;;;;;;;32.67;30.79;100936.53;5032769;28;20132;-54
2022/06/25 11:19:27;;;;;;;5.22;2.92;;;;;;;32.44;30.91;100925.38;5032911;28;20053;-51
2022/06/25 11:21:59;;;;;;;11.70;3.20;;;;;;;32.31;31.21;100937.31;5032610;28;20049;-51
2022/06/25 11:28:47;;;;;;;3.25;2.40;;;;;;;32.18;31.43;100930.53;5032066;28;20410;-50
2022/06/25 11:30:14;;;;;;;3.65;2.47;;;;;;;31.98;31.27;100940.50;5032591;28;20052;-51
2022/06/25 11:32:49;;;;;;;4.20;2.25;;;;;;;31.82;31.55;100927.72;5035962;28;20050;-51
2022/06/25 11:35:19;;;;;;;3.38;2.30;;;;;;;31.83;32.32;100932.09;5035926;28;20427;-52
2022/06/25 11:37:45;;;;;;;3.08;2.47;;;;;;;31.92;32.01;100931.22;5036112;28;20057;-51
2022/06/25 11:40:16;;;;;;;3.38;2.60;;;;;;;32.05;31.67;100940.75;5036024;28;20458;-52
2022/06/25 11:42:51;;;;;;;4.35;2.88;;;;;;;31.98;31.54;100930.63;5035865;28;20053;-51
2022/06/25 11:45:21;;;;;;;2.90;2.45;;;;;;;31.88;31.19;100924.47;5035807;28;20104;-51
2022/06/25 11:47:50;;;;;;;14.77;3.20;;;;;;;31.78;31.68;100939.72;5035832;28;20084;-51
2022/06/25 11:50:20;;;;;;;3.88;2.33;;;;;;;31.65;31.47;100936.44;4996236;28;20054;-52
2022/06/25 11:52:47;;;;;;;8.50;2.60;;;;;;;31.55;32.18;100927.59;4996082;28;20058;-51
2022/06/25 11:55:15;;;;;;;2.53;2.30;;;;;;;31.55;32.31;100932.94;4996423;28;20141;-53
2022/06/25 11:58:01;;;;;;;11.75;3.13;;;;;;;31.63;32.20;100935.75;4996499;28;20054;-52
2022/06/25 12:00:29;;;;;;;4.95;2.25;;;;;;;31.66;31.96;100935.47;4996337;28;20064;-51
2022/06/25 12:03:03;;;;;;;2.72;2.25;;;;;;;31.68;31.61;100930.81;4996208;28;20325;-52
2022/06/25 12:05:30;;;;;;;5.32;2.67;;;;;;;31.70;32.45;100942.25;4995804;28;20050;-51
2022/06/25 12:07:58;;;;;;;2.85;2.55;;;;;;;31.68;32.02;100937.00;4996315;28;20077;-53
2022/06/25 12:10:29;;;;;;;3.47;2.25;;;;;;;31.70;31.86;100931.53;4996464;28;20050;-51
2022/06/25 12:13:06;;;;;;;106.68;12.70;;;;;;;31.70;31.94;100936.91;4995817;28;20062;-51
2022/06/25 12:15:36;;;;;;;7.78;2.10;;;;;;;31.63;31.64;100935.75;4996084;28;20054;-51
2022/06/25 12:18:10;;;;;;;4.15;1.80;;;;;;;31.55;31.95;100930.28;4996256;28;20065;-51
2022/06/25 12:20:59;;;;;;;13.77;2.40;;;;;;;31.49;31.40;100928.16;4996187;28;20057;-51
2022/06/25 12:23:26;;;;;;;3.50;2.20;;;;;;;31.48;32.00;100926.47;4995623;28;21011;-52
2022/06/25 12:25:55;;;;;;;2.90;2.50;;;;;;;31.47;31.77;100935.50;4995949;28;20459;-52
2022/06/25 12:28:42;;;;;;;2.78;2.08;;;;;;;31.36;31.53;100934.66;4995804;28;20064;-54
2022/06/25 12:31:10;;;;;;;2.20;1.90;;;;;;;31.22;31.99;100942.28;4994725;28;20054;-50
2022/06/25 12:33:40;;;;;;;3.88;2.40;;;;;;;31.12;32.10;100928.84;4995656;28;20137;-54